Terminal Aerodrome Forecast
Issued by NWS

Home | Current Version | Previous Version | Text Only | Print | Product List | Glossary Off
Versions: 1 2 3 4 5 6 7 8 9 10 11 12 13 14 15 16 17 18

000
FTUS41 KCLE 311400 AAA
TAFFDY
TAF AMD
KFDY 311421Z 3114/0112 26005KT P6SM SCT035
     FM312000 26007KT P6SM BKN045
     FM010000 VRB03KT P6SM SCT050=

USA.gov is the U.S. government's official web portal to all federal, state and local government web resources and services.